createdAt,value
2018-10-06T00:00:16.714Z,100343.00
2018-10-06T00:02:45.015Z,100349.00
2018-10-06T00:05:13.353Z,100348.00
2018-10-06T00:07:41.662Z,100349.00
2018-10-06T00:10:10.618Z,100351.00
2018-10-06T00:12:38.970Z,100356.00
2018-10-06T00:15:07.462Z,100356.00
2018-10-06T00:17:35.793Z,100351.00
2018-10-06T00:20:04.330Z,100347.00
2018-10-06T00:22:32.583Z,100347.00
2018-10-06T00:25:00.838Z,100351.00
2018-10-06T00:27:29.075Z,100344.00
2018-10-06T00:29:57.424Z,100337.00
2018-10-06T00:32:26.427Z,100347.00
2018-10-06T00:34:55.262Z,100339.00
2018-10-06T00:37:23.710Z,100338.00
2018-10-06T00:39:52.468Z,100336.00
2018-10-06T00:42:21.580Z,100344.00
2018-10-06T00:44:49.840Z,100339.00
2018-10-06T00:47:18.094Z,100321.00
2018-10-06T00:49:46.447Z,100322.00
2018-10-06T00:52:14.850Z,100315.00
2018-10-06T00:54:43.294Z,100317.00
2018-10-06T00:57:11.725Z,100316.00
2018-10-06T00:59:40.092Z,100314.00
2018-10-06T01:02:08.851Z,100315.00
2018-10-06T01:04:38.233Z,100313.00
2018-10-06T01:07:06.634Z,100313.00
2018-10-06T01:09:34.817Z,100312.00
2018-10-06T01:12:03.295Z,100303.00
2018-10-06T01:14:31.605Z,100306.00
2018-10-06T01:17:00.084Z,100302.00
2018-10-06T01:19:31.769Z,100298.00
2018-10-06T01:22:00.018Z,100299.00
2018-10-06T01:24:28.292Z,100294.00
2018-10-06T01:26:56.539Z,100294.00
2018-10-06T01:29:24.892Z,100298.00
2018-10-06T01:31:53.189Z,100283.00
2018-10-06T01:34:21.587Z,100284.00
2018-10-06T01:36:49.963Z,100285.00
2018-10-06T01:39:18.238Z,100277.00
2018-10-06T01:41:46.627Z,100283.00
2018-10-06T01:44:15.387Z,100274.00
2018-10-06T01:46:43.792Z,100275.00
2018-10-06T01:49:12.015Z,100282.00
2018-10-06T01:51:40.252Z,100266.00
2018-10-06T01:54:08.466Z,100269.00
2018-10-06T01:56:36.739Z,100268.00
2018-10-06T01:59:05.034Z,100270.00
2018-10-06T02:01:33.271Z,100267.00
2018-10-06T02:04:01.499Z,100269.00
2018-10-06T02:06:29.755Z,100268.00
2018-10-06T02:08:58.120Z,100261.00
2018-10-06T02:11:26.299Z,100268.00
2018-10-06T02:13:54.586Z,100266.00
2018-10-06T02:16:22.768Z,100268.00
2018-10-06T02:18:51.008Z,100267.00
2018-10-06T02:21:19.250Z,100271.00
2018-10-06T02:23:48.514Z,100257.00
2018-10-06T02:26:16.718Z,100254.00
2018-10-06T02:28:44.907Z,100247.00
2018-10-06T02:31:13.163Z,100242.00
2018-10-06T02:33:41.343Z,100240.00
2018-10-06T02:36:09.587Z,100236.00
2018-10-06T02:38:38.027Z,100242.00
2018-10-06T02:41:06.348Z,100237.00
2018-10-06T02:43:34.595Z,100241.00
2018-10-06T02:46:03.877Z,100245.00
2018-10-06T02:48:32.042Z,100240.00
2018-10-06T02:51:00.195Z,100232.00
2018-10-06T02:53:28.425Z,100247.00
2018-10-06T02:55:56.623Z,100236.00
2018-10-06T02:58:24.871Z,100243.00
2018-10-06T03:00:53.098Z,100237.00
2018-10-06T03:03:21.390Z,100237.00
2018-10-06T03:05:49.648Z,100235.00
2018-10-06T03:08:18.486Z,100233.00
2018-10-06T03:10:46.700Z,100226.00
2018-10-06T03:13:14.883Z,100230.00
2018-10-06T03:15:43.083Z,100221.00
2018-10-06T03:18:11.335Z,100215.00
2018-10-06T03:20:39.583Z,100222.00
2018-10-06T03:23:07.905Z,100221.00
2018-10-06T03:25:36.260Z,100227.00
2018-10-06T03:28:04.568Z,100227.00
2018-10-06T03:30:33.503Z,100219.00
2018-10-06T03:33:02.441Z,100214.00
2018-10-06T03:35:30.962Z,100214.00
2018-10-06T03:37:59.777Z,100216.00
2018-10-06T03:40:27.988Z,100211.00
2018-10-06T03:42:56.246Z,100212.00
2018-10-06T03:45:24.590Z,100208.00
2018-10-06T03:47:52.903Z,100202.00
2018-10-06T03:50:21.136Z,100202.00
2018-10-06T03:52:49.460Z,100202.00
2018-10-06T03:55:17.639Z,100196.00
2018-10-06T03:57:46.019Z,100205.00
2018-10-06T04:00:14.258Z,100207.00
2018-10-06T04:02:42.467Z,100203.00
2018-10-06T04:05:10.693Z,100202.00
2018-10-06T04:07:38.847Z,100191.00
2018-10-06T04:10:07.209Z,100206.00
2018-10-06T04:12:35.428Z,100200.00
2018-10-06T04:15:03.823Z,100199.00
2018-10-06T04:17:32.020Z,100197.00
2018-10-06T04:20:00.282Z,100189.00
2018-10-06T04:22:28.841Z,100189.00
2018-10-06T04:24:57.092Z,100197.00
2018-10-06T04:27:25.292Z,100200.00
2018-10-06T04:29:53.521Z,100182.00
2018-10-06T04:32:21.715Z,100180.00
2018-10-06T04:34:49.989Z,100188.00
2018-10-06T04:37:18.287Z,100184.00
2018-10-06T04:39:46.566Z,100183.00
2018-10-06T04:42:14.819Z,100188.00
2018-10-06T04:44:43.094Z,100185.00
2018-10-06T04:47:11.318Z,100171.00
2018-10-06T04:49:39.651Z,100181.00
2018-10-06T04:52:07.921Z,100175.00
2018-10-06T04:54:36.185Z,100172.00
2018-10-06T04:57:04.422Z,100176.00
2018-10-06T04:59:32.655Z,100179.00
2018-10-06T05:02:00.935Z,100176.00
2018-10-06T05:04:29.225Z,100105.00
2018-10-06T05:06:58.124Z,100184.00
2018-10-06T05:09:26.606Z,100188.00
2018-10-06T05:11:54.910Z,100176.00
2018-10-06T05:14:23.320Z,100186.00
2018-10-06T05:16:51.539Z,100199.00
2018-10-06T05:19:19.747Z,100198.00
2018-10-06T05:21:47.981Z,100191.00
2018-10-06T05:24:16.312Z,100197.00
2018-10-06T05:26:44.518Z,100205.00
2018-10-06T05:29:13.009Z,100204.00
2018-10-06T05:31:41.252Z,100204.00
2018-10-06T05:34:09.540Z,100190.00
2018-10-06T05:36:38.519Z,100206.00
2018-10-06T05:39:09.545Z,100195.00
2018-10-06T05:41:37.820Z,100211.00
2018-10-06T05:44:06.880Z,100201.00
2018-10-06T05:46:35.219Z,100207.00
2018-10-06T05:49:03.457Z,100212.00
2018-10-06T05:51:31.807Z,100201.00
2018-10-06T05:54:00.081Z,100200.00
2018-10-06T05:56:29.075Z,100199.00
2018-10-06T05:58:57.459Z,100205.00
2018-10-06T06:01:26.198Z,100200.00
2018-10-06T06:03:54.519Z,100195.00
2018-10-06T06:06:22.806Z,100199.00
2018-10-06T06:08:51.696Z,100203.00
2018-10-06T06:11:21.007Z,100194.00
2018-10-06T06:13:49.235Z,100199.00
2018-10-06T06:16:17.719Z,100195.00
2018-10-06T06:18:46.188Z,100196.00
2018-10-06T06:21:14.619Z,100199.00
2018-10-06T06:23:42.948Z,100199.00
2018-10-06T06:26:11.119Z,100191.00
2018-10-06T06:28:39.431Z,100191.00
2018-10-06T06:31:07.764Z,100186.00
2018-10-06T06:33:35.972Z,100184.00
2018-10-06T06:36:04.239Z,100188.00
2018-10-06T06:38:33.710Z,100181.00
2018-10-06T06:41:01.890Z,100186.00
2018-10-06T06:43:30.752Z,100187.00
2018-10-06T06:45:59.063Z,100183.00
2018-10-06T06:48:27.394Z,100188.00
2018-10-06T06:50:55.598Z,100198.00
2018-10-06T06:53:23.844Z,100187.00
2018-10-06T06:55:52.136Z,100179.00
2018-10-06T06:58:21.324Z,100181.00
2018-10-06T07:00:49.727Z,100190.00
2018-10-06T07:03:18.100Z,100191.00
2018-10-06T07:05:46.361Z,100177.00
2018-10-06T07:08:14.616Z,100177.00
2018-10-06T07:10:42.905Z,100172.00
2018-10-06T07:13:11.182Z,100170.00
2018-10-06T07:15:39.450Z,100172.00
2018-10-06T07:18:07.772Z,100172.00
2018-10-06T07:20:36.059Z,100164.00
2018-10-06T07:23:04.374Z,100166.00
2018-10-06T07:25:32.720Z,100167.00
2018-10-06T07:28:01.145Z,100170.00
2018-10-06T07:30:29.442Z,100168.00
2018-10-06T07:32:58.130Z,100167.00
2018-10-06T07:35:26.425Z,100175.00
2018-10-06T07:37:54.748Z,100173.00
2018-10-06T07:40:23.561Z,100168.00
2018-10-06T07:42:51.869Z,100171.00
2018-10-06T07:45:20.248Z,100180.00
2018-10-06T07:47:48.542Z,100178.00
2018-10-06T07:50:16.924Z,100177.00
2018-10-06T07:52:45.325Z,100172.00
2018-10-06T07:55:13.793Z,100175.00
2018-10-06T07:57:42.056Z,100163.00
2018-10-06T08:00:10.392Z,100173.00
2018-10-06T08:02:38.777Z,100164.00
2018-10-06T08:05:07.157Z,100168.00
2018-10-06T08:07:35.447Z,100182.00
2018-10-06T08:10:03.953Z,100175.00
2018-10-06T08:12:32.273Z,100182.00
2018-10-06T08:15:01.265Z,100177.00
2018-10-06T08:17:29.561Z,100179.00
2018-10-06T08:19:57.823Z,100177.00
2018-10-06T08:22:26.302Z,100172.00
2018-10-06T08:24:54.656Z,100162.00
2018-10-06T08:27:24.558Z,100163.00
2018-10-06T08:29:53.138Z,100160.00
2018-10-06T08:32:21.582Z,100157.00
2018-10-06T08:34:49.901Z,100167.00
2018-10-06T08:37:18.321Z,100159.00
2018-10-06T08:39:46.750Z,100147.00
2018-10-06T08:42:15.059Z,100144.00
2018-10-06T08:44:43.360Z,100133.00
2018-10-06T08:47:12.316Z,100138.00
2018-10-06T08:49:40.598Z,100135.00
2018-10-06T08:52:09.821Z,100123.00
2018-10-06T08:54:38.208Z,100130.00
2018-10-06T08:57:06.479Z,100127.00
2018-10-06T08:59:34.785Z,100128.00
2018-10-06T09:02:03.085Z,100131.00
2018-10-06T09:04:31.545Z,100131.00
2018-10-06T09:06:59.764Z,100129.00
2018-10-06T09:09:28.353Z,100124.00
2018-10-06T09:11:56.689Z,100121.00
2018-10-06T09:14:25.737Z,100124.00
2018-10-06T09:16:54.152Z,100118.00
2018-10-06T09:19:22.435Z,100115.00
2018-10-06T09:21:50.802Z,100112.00
2018-10-06T09:24:20.057Z,100099.00
2018-10-06T09:26:48.614Z,100096.00
2018-10-06T09:29:16.942Z,100099.00
2018-10-06T09:31:45.266Z,100085.00
2018-10-06T09:34:13.438Z,100091.00
2018-10-06T09:36:41.914Z,100077.00
2018-10-06T09:39:10.383Z,100074.00
2018-10-06T09:41:38.742Z,100063.00
2018-10-06T09:44:07.114Z,100051.00
2018-10-06T09:46:35.667Z,100052.00
2018-10-06T09:49:04.127Z,100060.00
2018-10-06T09:51:32.471Z,100060.00
2018-10-06T09:54:00.727Z,100061.00
2018-10-06T09:56:29.033Z,100053.00
2018-10-06T10:01:45.711Z,100053.00
2018-10-06T10:04:16.944Z,100055.00
2018-10-06T10:06:45.726Z,100051.00
2018-10-06T10:09:15.102Z,100047.00
2018-10-06T10:11:43.561Z,100034.00
2018-10-06T10:14:12.056Z,100034.00
2018-10-06T10:16:40.442Z,100031.00
2018-10-06T10:19:09.134Z,100030.00
2018-10-06T10:21:37.556Z,100036.00
2018-10-06T10:24:05.872Z,100031.00
2018-10-06T10:26:34.252Z,100024.00
2018-10-06T10:29:02.995Z,100017.00
2018-10-06T10:31:31.628Z,100017.00
2018-10-06T10:34:00.154Z,100021.00
2018-10-06T10:36:28.499Z,100019.00
2018-10-06T10:38:56.707Z,100012.00
2018-10-06T10:41:24.992Z,100017.00
2018-10-06T10:43:53.269Z,100018.00
2018-10-06T10:46:21.851Z,100033.00
2018-10-06T10:48:50.290Z,100004.00
2018-10-06T10:51:20.068Z,100001.00
2018-10-06T10:53:48.410Z,99997.00
2018-10-06T10:56:16.712Z,99994.00
2018-10-06T10:58:45.007Z,99985.00
2018-10-06T11:01:13.846Z,99972.00
2018-10-06T11:03:42.104Z,99971.00
2018-10-06T11:06:10.442Z,99959.00
2018-10-06T11:08:38.819Z,99962.00
2018-10-06T11:11:07.153Z,99961.00
2018-10-06T11:13:35.559Z,99964.00
2018-10-06T11:16:04.266Z,99970.00
2018-10-06T11:18:32.656Z,99964.00
2018-10-06T11:21:01.007Z,99964.00
2018-10-06T11:23:30.194Z,99956.00
2018-10-06T11:25:58.598Z,99963.00
2018-10-06T11:28:27.422Z,99958.00
2018-10-06T11:30:55.838Z,99944.00
2018-10-06T11:33:24.240Z,99949.00
2018-10-06T11:35:52.694Z,99948.00
2018-10-06T11:38:21.483Z,99940.00
2018-10-06T11:40:49.838Z,99929.00
2018-10-06T11:43:18.157Z,99927.00
2018-10-06T11:45:46.636Z,99930.00
2018-10-06T11:48:14.962Z,99921.00
2018-10-06T11:50:43.457Z,99922.00
2018-10-06T11:53:11.770Z,99909.00
2018-10-06T11:55:40.051Z,99905.00
2018-10-06T11:58:08.511Z,99897.00
2018-10-06T12:00:36.929Z,99843.00
2018-10-06T12:03:05.284Z,99891.00
2018-10-06T12:05:33.582Z,99893.00
2018-10-06T12:08:01.956Z,99891.00
2018-10-06T12:10:30.504Z,99892.00
2018-10-06T12:12:58.800Z,99878.00
2018-10-06T12:15:28.176Z,99882.00
2018-10-06T12:17:56.554Z,99883.00
2018-10-06T12:20:24.916Z,99874.00
2018-10-06T12:22:53.544Z,99876.00
2018-10-06T12:25:21.895Z,99867.00
2018-10-06T12:27:53.427Z,99875.00
2018-10-06T12:30:22.365Z,99866.00
2018-10-06T12:32:51.565Z,99867.00
2018-10-06T12:35:20.523Z,99867.00
2018-10-06T12:37:48.693Z,99858.00
2018-10-06T12:40:18.258Z,99862.00
2018-10-06T12:42:47.296Z,99866.00
2018-10-06T12:45:15.521Z,99856.00
2018-10-06T12:47:43.718Z,99855.00
2018-10-06T12:50:12.371Z,99854.00
2018-10-06T12:52:41.050Z,99853.00
2018-10-06T12:55:09.979Z,99855.00
2018-10-06T12:57:59.491Z,99842.00
2018-10-06T13:00:44.345Z,99836.00
2018-10-06T13:03:13.244Z,99828.00
2018-10-06T13:05:41.583Z,99831.00
2018-10-06T13:08:10.023Z,99823.00
2018-10-06T13:10:40.331Z,99820.00
2018-10-06T13:13:08.742Z,99828.00
2018-10-06T13:15:37.023Z,99812.00
2018-10-06T13:18:05.966Z,99826.00
2018-10-06T13:20:34.803Z,99818.00
2018-10-06T13:23:03.291Z,99819.00
2018-10-06T13:25:32.608Z,99821.00
2018-10-06T13:28:02.794Z,99812.00
2018-10-06T13:30:31.985Z,99813.00
2018-10-06T13:33:00.384Z,99817.00
2018-10-06T13:35:28.833Z,99809.00
2018-10-06T13:37:57.874Z,99819.00
2018-10-06T13:40:26.227Z,99811.00
2018-10-06T13:43:25.318Z,99820.00
2018-10-06T13:46:02.616Z,99826.00
2018-10-06T13:48:31.774Z,99809.00
2018-10-06T13:54:23.612Z,99813.00
2018-10-06T13:56:52.598Z,99813.00
2018-10-06T13:59:21.021Z,99802.00
2018-10-06T14:01:49.306Z,99807.00
2018-10-06T14:04:17.736Z,99800.00
2018-10-06T14:06:46.081Z,99790.00
2018-10-06T14:09:14.424Z,99802.00
2018-10-06T14:11:43.012Z,99799.00
2018-10-06T14:14:11.522Z,99788.00
2018-10-06T14:16:40.046Z,99791.00
2018-10-06T14:19:08.405Z,99784.00
2018-10-06T14:21:36.679Z,99787.00
2018-10-06T14:24:04.939Z,99779.00
2018-10-06T14:26:34.417Z,99780.00
2018-10-06T14:29:02.689Z,99777.00
2018-10-06T14:31:31.211Z,99778.00
2018-10-06T14:33:59.814Z,99782.00
2018-10-06T14:36:28.024Z,99783.00
2018-10-06T14:38:56.213Z,99775.00
2018-10-06T14:41:25.038Z,99780.00
2018-10-06T14:43:53.244Z,99778.00
2018-10-06T14:46:21.691Z,99775.00
2018-10-06T14:48:49.964Z,99790.00
2018-10-06T14:51:18.527Z,99783.00
2018-10-06T14:53:46.861Z,99785.00
2018-10-06T14:56:15.259Z,99771.00
2018-10-06T14:58:43.580Z,99765.00
2018-10-06T15:01:12.119Z,99517.00
2018-10-06T15:03:40.525Z,99774.00
2018-10-06T15:06:08.744Z,99777.00
2018-10-06T15:08:37.078Z,99762.00
2018-10-06T15:11:05.718Z,99772.00
2018-10-06T15:13:34.445Z,99768.00
2018-10-06T15:16:03.128Z,99769.00
2018-10-06T15:18:33.651Z,99758.00
2018-10-06T15:21:02.017Z,99758.00
2018-10-06T15:23:32.232Z,99763.00
2018-10-06T15:26:00.602Z,99757.00
2018-10-06T15:28:28.861Z,99761.00
2018-10-06T15:30:57.413Z,99749.00
2018-10-06T15:33:25.848Z,99750.00
2018-10-06T15:35:54.344Z,99750.00
2018-10-06T15:38:23.372Z,99750.00
2018-10-06T15:40:51.829Z,99753.00
2018-10-06T15:43:20.323Z,99759.00
2018-10-06T15:45:48.654Z,99753.00
2018-10-06T15:48:17.312Z,99741.00
2018-10-06T15:50:47.208Z,99741.00
2018-10-06T15:53:15.523Z,99746.00
2018-10-06T15:55:43.844Z,99741.00
2018-10-06T15:58:12.182Z,99739.00
2018-10-06T16:00:40.443Z,99735.00
2018-10-06T16:03:08.762Z,99742.00
2018-10-06T16:05:37.240Z,99735.00
2018-10-06T16:08:05.757Z,99735.00
2018-10-06T16:10:34.267Z,99738.00
2018-10-06T16:13:02.568Z,99739.00
2018-10-06T16:15:30.940Z,99746.00
2018-10-06T16:17:59.298Z,99737.00
2018-10-06T16:20:27.606Z,99737.00
2018-10-06T16:22:55.999Z,99746.00
2018-10-06T16:25:24.341Z,99738.00
2018-10-06T16:27:52.742Z,99736.00
2018-10-06T16:30:21.199Z,99740.00
2018-10-06T16:32:50.307Z,99739.00
2018-10-06T16:35:18.620Z,99746.00
2018-10-06T16:37:46.972Z,99740.00
2018-10-06T16:40:15.330Z,99739.00
2018-10-06T16:42:43.691Z,99734.00
2018-10-06T16:45:11.980Z,99729.00
2018-10-06T16:47:40.211Z,99728.00
2018-10-06T16:50:08.520Z,99730.00
2018-10-06T16:52:37.062Z,99725.00
2018-10-06T16:55:05.420Z,99731.00
2018-10-06T16:57:33.762Z,99724.00
2018-10-06T17:00:02.145Z,99732.00
2018-10-06T17:02:30.431Z,99725.00
2018-10-06T17:04:58.830Z,99737.00
2018-10-06T17:07:27.172Z,99736.00
2018-10-06T17:09:56.085Z,99742.00
2018-10-06T17:12:24.402Z,99744.00
2018-10-06T17:14:52.744Z,99746.00
2018-10-06T17:17:21.262Z,99736.00
2018-10-06T17:19:49.641Z,99738.00
2018-10-06T17:22:18.023Z,99731.00
2018-10-06T17:24:46.533Z,99737.00
2018-10-06T17:27:14.878Z,99739.00
2018-10-06T17:29:43.237Z,99743.00
2018-10-06T17:32:11.501Z,99735.00
2018-10-06T17:34:39.808Z,99738.00
2018-10-06T17:37:08.134Z,99747.00
2018-10-06T17:39:37.488Z,99739.00
2018-10-06T17:42:06.047Z,99748.00
2018-10-06T17:44:34.517Z,99741.00
2018-10-06T17:47:02.849Z,99746.00
2018-10-06T17:49:31.183Z,99739.00
2018-10-06T17:51:59.434Z,99746.00
2018-10-06T17:54:27.697Z,99750.00
2018-10-06T17:56:55.974Z,99751.00
2018-10-06T17:59:24.377Z,99734.00
2018-10-06T18:01:52.873Z,99750.00
2018-10-06T18:04:21.274Z,99746.00
2018-10-06T18:06:49.667Z,99744.00
2018-10-06T18:09:18.139Z,99749.00
2018-10-06T18:11:46.528Z,99754.00
2018-10-06T18:14:14.924Z,99752.00
2018-10-06T18:16:43.372Z,99749.00
2018-10-06T18:19:11.771Z,99751.00
2018-10-06T18:21:40.270Z,99752.00
2018-10-06T18:24:08.618Z,99758.00
2018-10-06T18:26:37.068Z,99752.00
2018-10-06T18:29:05.727Z,99747.00
2018-10-06T18:31:34.072Z,99760.00
2018-10-06T18:34:02.359Z,99757.00
2018-10-06T18:36:30.766Z,99758.00
2018-10-06T18:38:59.058Z,99748.00
2018-10-06T18:41:27.414Z,99762.00
2018-10-06T18:43:55.698Z,99759.00
2018-10-06T18:46:24.506Z,99750.00
2018-10-06T18:48:52.827Z,99762.00
2018-10-06T18:51:21.419Z,99764.00
2018-10-06T18:53:49.945Z,99758.00
2018-10-06T18:56:18.588Z,99767.00
2018-10-06T18:58:47.123Z,99761.00
2018-10-06T19:01:15.599Z,99770.00
2018-10-06T19:03:44.336Z,99774.00
2018-10-06T19:06:12.541Z,99771.00
2018-10-06T19:08:41.077Z,99777.00
2018-10-06T19:11:09.551Z,99775.00
2018-10-06T19:13:38.088Z,99768.00
2018-10-06T19:16:06.634Z,99775.00
2018-10-06T19:18:35.116Z,99775.00
2018-10-06T19:21:03.552Z,99778.00
2018-10-06T19:23:32.437Z,99777.00
2018-10-06T19:26:01.005Z,99781.00
2018-10-06T19:28:29.409Z,99780.00
2018-10-06T19:30:57.837Z,99788.00
2018-10-06T19:33:26.401Z,99785.00
2018-10-06T19:35:54.933Z,99777.00
2018-10-06T19:38:23.339Z,99785.00
2018-10-06T19:40:51.919Z,99790.00
2018-10-06T19:43:20.279Z,99788.00
2018-10-06T19:45:48.902Z,99791.00
2018-10-06T19:48:17.396Z,99788.00
2018-10-06T19:50:45.933Z,99779.00
2018-10-06T19:53:14.312Z,99794.00
2018-10-06T19:55:42.767Z,99788.00
2018-10-06T19:58:11.207Z,99807.00
2018-10-06T20:00:39.512Z,99788.00
2018-10-06T20:03:07.892Z,99798.00
2018-10-06T20:05:36.260Z,99791.00
2018-10-06T20:08:05.353Z,99794.00
2018-10-06T20:10:33.750Z,99794.00
2018-10-06T20:13:02.163Z,99800.00
2018-10-06T20:15:30.496Z,99802.00
2018-10-06T20:17:58.950Z,99807.00
2018-10-06T20:20:27.245Z,99807.00
2018-10-06T20:22:55.524Z,99820.00
2018-10-06T20:25:23.966Z,99820.00
2018-10-06T20:27:52.280Z,99821.00
2018-10-06T20:30:22.157Z,99818.00
2018-10-06T20:32:51.787Z,99813.00
2018-10-06T20:35:20.039Z,99818.00
2018-10-06T20:37:48.602Z,99822.00
2018-10-06T20:40:17.092Z,99825.00
2018-10-06T20:42:45.722Z,99820.00
2018-10-06T20:45:14.165Z,99817.00
2018-10-06T20:47:42.607Z,99818.00
2018-10-06T20:50:11.068Z,99820.00
2018-10-06T20:52:39.461Z,99805.00
2018-10-06T20:55:08.145Z,99818.00
2018-10-06T20:57:37.259Z,99808.00
2018-10-06T21:00:06.884Z,99808.00
2018-10-06T21:02:36.645Z,99802.00
2018-10-06T21:05:06.186Z,99800.00
2018-10-06T21:07:34.727Z,99807.00
2018-10-06T21:10:03.338Z,99793.00
2018-10-06T21:12:33.532Z,99798.00
2018-10-06T21:15:01.926Z,99803.00
2018-10-06T21:20:29.796Z,99796.00
2018-10-06T21:22:58.304Z,99797.00
2018-10-06T21:25:26.798Z,99797.00
2018-10-06T21:27:56.433Z,99789.00
2018-10-06T21:30:26.597Z,99793.00
2018-10-06T21:32:56.073Z,99797.00
2018-10-06T21:35:24.478Z,99794.00
2018-10-06T21:37:53.012Z,99797.00
2018-10-06T21:40:21.935Z,99797.00
2018-10-06T21:42:51.006Z,99793.00
2018-10-06T21:45:19.677Z,99799.00
2018-10-06T21:47:47.942Z,99797.00
2018-10-06T21:50:16.210Z,99802.00
2018-10-06T21:52:46.372Z,99804.00
2018-10-06T21:55:15.534Z,99801.00
2018-10-06T21:57:43.934Z,99794.00
2018-10-06T22:00:14.093Z,99799.00
2018-10-06T22:02:43.216Z,99795.00
2018-10-06T22:05:11.859Z,99799.00
2018-10-06T22:07:41.756Z,99796.00
2018-10-06T22:10:10.501Z,99800.00
2018-10-06T22:12:40.054Z,99801.00
2018-10-06T22:17:51.383Z,99800.00
2018-10-06T22:20:21.383Z,99800.00
2018-10-06T22:22:49.950Z,99803.00
2018-10-06T22:25:18.266Z,99806.00
2018-10-06T22:27:46.746Z,99807.00
2018-10-06T22:30:15.126Z,99810.00
2018-10-06T22:32:43.461Z,99811.00
2018-10-06T22:35:11.899Z,99813.00
2018-10-06T22:37:40.239Z,99811.00
2018-10-06T22:40:08.858Z,99809.00
2018-10-06T22:42:37.893Z,99804.00
2018-10-06T22:45:06.739Z,99799.00
2018-10-06T22:47:36.159Z,99804.00
2018-10-06T22:50:05.228Z,99800.00
2018-10-06T22:52:34.088Z,99800.00
2018-10-06T22:55:02.704Z,99799.00
2018-10-06T22:57:30.903Z,99798.00
2018-10-06T22:59:59.339Z,99798.00
2018-10-06T23:02:27.850Z,99789.00
2018-10-06T23:04:56.151Z,99797.00
2018-10-06T23:07:24.420Z,99795.00
2018-10-06T23:09:52.605Z,99800.00
2018-10-06T23:12:20.772Z,99798.00
2018-10-06T23:14:48.979Z,99801.00
2018-10-06T23:17:17.082Z,99791.00
2018-10-06T23:19:45.496Z,99784.00
2018-10-06T23:22:13.636Z,99790.00
2018-10-06T23:24:41.861Z,99786.00
2018-10-06T23:27:10.218Z,99791.00
2018-10-06T23:29:38.447Z,99792.00
2018-10-06T23:32:06.815Z,99790.00
2018-10-06T23:34:35.035Z,99793.00
2018-10-06T23:37:03.216Z,99794.00
2018-10-06T23:39:31.744Z,99798.00
2018-10-06T23:41:59.966Z,99797.00
2018-10-06T23:44:28.143Z,99807.00
2018-10-06T23:46:57.281Z,99800.00
2018-10-06T23:49:25.535Z,99807.00
2018-10-06T23:51:53.650Z,99812.00
2018-10-06T23:54:21.909Z,99745.00
2018-10-06T23:56:50.005Z,99813.00
2018-10-06T23:59:18.254Z,99821.00
